sensor_id;sensor_type;location;lat;lon;timestamp;temperature;humidity
18297;DHT22;18066;52.106;5.534;2023-03-04T00:01:07;6.80;99.90
18297;DHT22;18066;52.106;5.534;2023-03-04T00:03:34;6.80;99.90
18297;DHT22;18066;52.106;5.534;2023-03-04T00:06:01;6.70;99.90
18297;DHT22;18066;52.106;5.534;2023-03-04T00:08:28;6.70;99.90
18297;DHT22;18066;52.106;5.534;2023-03-04T00:10:55;6.60;99.90
18297;DHT22;18066;52.106;5.534;2023-03-04T00:13:22;6.60;99.90
18297;DHT22;18066;52.106;5.534;2023-03-04T00:15:49;6.70;99.90
18297;DHT22;18066;52.106;5.534;2023-03-04T00:18:18;6.70;99.90
18297;DHT22;18066;52.106;5.534;2023-03-04T00:20:45;6.80;99.90
18297;DHT22;18066;52.106;5.534;2023-03-04T00:23:14;6.80;99.90
18297;DHT22;18066;52.106;5.534;2023-03-04T00:25:41;6.80;99.90
18297;DHT22;18066;52.106;5.534;2023-03-04T00:28:08;6.80;99.90
18297;DHT22;18066;52.106;5.534;2023-03-04T00:30:34;6.80;99.90
18297;DHT22;18066;52.106;5.534;2023-03-04T00:33:01;6.80;99.90
18297;DHT22;18066;52.106;5.534;2023-03-04T00:35:31;6.80;99.90
18297;DHT22;18066;52.106;5.534;2023-03-04T00:37:57;6.70;99.90
18297;DHT22;18066;52.106;5.534;2023-03-04T00:40:24;6.60;99.90
18297;DHT22;18066;52.106;5.534;2023-03-04T00:42:51;6.60;99.90
18297;DHT22;18066;52.106;5.534;2023-03-04T00:45:18;6.60;99.90
18297;DHT22;18066;52.106;5.534;2023-03-04T00:47:44;6.60;99.90
18297;DHT22;18066;52.106;5.534;2023-03-04T00:50:11;6.70;99.90
18297;DHT22;18066;52.106;5.534;2023-03-04T00:52:40;6.70;99.90
18297;DHT22;18066;52.106;5.534;2023-03-04T00:55:08;6.70;99.90
18297;DHT22;18066;52.106;5.534;2023-03-04T00:57:35;6.60;99.90
18297;DHT22;18066;52.106;5.534;2023-03-04T01:00:02;6.70;99.90
18297;DHT22;18066;52.106;5.534;2023-03-04T01:02:29;6.70;99.90
18297;DHT22;18066;52.106;5.534;2023-03-04T01:04:56;6.70;99.90
18297;DHT22;18066;52.106;5.534;2023-03-04T01:07:22;6.70;99.90
18297;DHT22;18066;52.106;5.534;2023-03-04T01:09:51;6.70;99.90
18297;DHT22;18066;52.106;5.534;2023-03-04T01:12:18;6.80;99.90
18297;DHT22;18066;52.106;5.534;2023-03-04T01:14:44;6.80;99.90
18297;DHT22;18066;52.106;5.534;2023-03-04T01:17:11;6.70;99.90
18297;DHT22;18066;52.106;5.534;2023-03-04T01:19:38;6.70;99.90
18297;DHT22;18066;52.106;5.534;2023-03-04T01:22:05;6.70;99.90
18297;DHT22;18066;52.106;5.534;2023-03-04T01:24:31;6.70;99.90
18297;DHT22;18066;52.106;5.534;2023-03-04T01:27:00;6.60;99.90
18297;DHT22;18066;52.106;5.534;2023-03-04T01:29:27;6.60;99.90
18297;DHT22;18066;52.106;5.534;2023-03-04T01:31:53;6.60;99.90
18297;DHT22;18066;52.106;5.534;2023-03-04T01:34:20;6.60;99.90
18297;DHT22;18066;52.106;5.534;2023-03-04T01:36:47;6.60;99.90
18297;DHT22;18066;52.106;5.534;2023-03-04T01:39:14;6.60;99.90
18297;DHT22;18066;52.106;5.534;2023-03-04T01:41:40;6.50;99.90
18297;DHT22;18066;52.106;5.534;2023-03-04T01:44:10;6.50;99.90
18297;DHT22;18066;52.106;5.534;2023-03-04T01:46:38;6.60;99.90
18297;DHT22;18066;52.106;5.534;2023-03-04T01:49:09;6.50;99.90
18297;DHT22;18066;52.106;5.534;2023-03-04T01:51:38;6.50;99.90
18297;DHT22;18066;52.106;5.534;2023-03-04T01:54:04;6.50;99.90
18297;DHT22;18066;52.106;5.534;2023-03-04T01:56:34;6.60;99.90
18297;DHT22;18066;52.106;5.534;2023-03-04T01:59:12;6.60;99.90
18297;DHT22;18066;52.106;5.534;2023-03-04T02:01:41;6.60;99.90
18297;DHT22;18066;52.106;5.534;2023-03-04T02:04:09;6.60;99.90
18297;DHT22;18066;52.106;5.534;2023-03-04T02:06:37;6.60;99.90
18297;DHT22;18066;52.106;5.534;2023-03-04T02:09:05;6.70;99.90
18297;DHT22;18066;52.106;5.534;2023-03-04T02:11:33;6.60;99.90
18297;DHT22;18066;52.106;5.534;2023-03-04T02:14:00;6.60;99.90
18297;DHT22;18066;52.106;5.534;2023-03-04T02:16:28;6.60;99.90
18297;DHT22;18066;52.106;5.534;2023-03-04T02:18:56;6.60;99.90
18297;DHT22;18066;52.106;5.534;2023-03-04T02:21:25;6.70;99.90
18297;DHT22;18066;52.106;5.534;2023-03-04T02:24:01;6.70;99.90
18297;DHT22;18066;52.106;5.534;2023-03-04T02:26:30;6.70;99.90
18297;DHT22;18066;52.106;5.534;2023-03-04T02:29:00;6.90;99.90
18297;DHT22;18066;52.106;5.534;2023-03-04T02:31:31;6.80;99.90
18297;DHT22;18066;52.106;5.534;2023-03-04T02:34:00;6.80;99.90
18297;DHT22;18066;52.106;5.534;2023-03-04T02:36:28;6.90;99.90
18297;DHT22;18066;52.106;5.534;2023-03-04T02:38:59;7.00;99.90
18297;DHT22;18066;52.106;5.534;2023-03-04T02:41:29;7.10;99.90
18297;DHT22;18066;52.106;5.534;2023-03-04T02:43:56;7.00;99.90
18297;DHT22;18066;52.106;5.534;2023-03-04T02:46:23;7.00;99.90
18297;DHT22;18066;52.106;5.534;2023-03-04T02:48:50;7.00;99.90
18297;DHT22;18066;52.106;5.534;2023-03-04T02:51:17;7.00;99.90
18297;DHT22;18066;52.106;5.534;2023-03-04T02:53:44;6.90;99.90
18297;DHT22;18066;52.106;5.534;2023-03-04T02:56:10;6.90;99.90
18297;DHT22;18066;52.106;5.534;2023-03-04T02:58:39;6.90;99.90
18297;DHT22;18066;52.106;5.534;2023-03-04T03:01:05;6.90;99.90
18297;DHT22;18066;52.106;5.534;2023-03-04T03:03:32;6.80;99.90
18297;DHT22;18066;52.106;5.534;2023-03-04T03:05:59;6.70;99.90
18297;DHT22;18066;52.106;5.534;2023-03-04T03:08:26;6.70;99.90
18297;DHT22;18066;52.106;5.534;2023-03-04T03:10:52;6.50;99.90
18297;DHT22;18066;52.106;5.534;2023-03-04T03:13:19;6.50;99.90
18297;DHT22;18066;52.106;5.534;2023-03-04T03:15:47;6.50;99.90
18297;DHT22;18066;52.106;5.534;2023-03-04T03:18:14;6.50;99.90
18297;DHT22;18066;52.106;5.534;2023-03-04T03:20:41;6.50;99.90
18297;DHT22;18066;52.106;5.534;2023-03-04T03:23:08;6.50;99.90
18297;DHT22;18066;52.106;5.534;2023-03-04T03:25:35;6.50;99.90
18297;DHT22;18066;52.106;5.534;2023-03-04T03:28:01;6.60;99.90
18297;DHT22;18066;52.106;5.534;2023-03-04T03:30:28;6.50;99.90
18297;DHT22;18066;52.106;5.534;2023-03-04T03:32:56;6.50;99.90
18297;DHT22;18066;52.106;5.534;2023-03-04T03:35:23;6.50;99.90
18297;DHT22;18066;52.106;5.534;2023-03-04T03:37:50;6.60;99.90
18297;DHT22;18066;52.106;5.534;2023-03-04T03:40:17;6.60;99.90
18297;DHT22;18066;52.106;5.534;2023-03-04T03:42:44;6.50;99.90
18297;DHT22;18066;52.106;5.534;2023-03-04T03:45:10;6.50;99.90
18297;DHT22;18066;52.106;5.534;2023-03-04T03:47:38;6.60;99.90
18297;DHT22;18066;52.106;5.534;2023-03-04T03:50:07;6.50;99.90
18297;DHT22;18066;52.106;5.534;2023-03-04T03:52:34;6.60;99.90
18297;DHT22;18066;52.106;5.534;2023-03-04T03:55:00;6.60;99.90
18297;DHT22;18066;52.106;5.534;2023-03-04T03:57:27;6.60;99.90
18297;DHT22;18066;52.106;5.534;2023-03-04T03:59:54;6.60;99.90
18297;DHT22;18066;52.106;5.534;2023-03-04T04:02:21;6.60;99.90
18297;DHT22;18066;52.106;5.534;2023-03-04T04:04:48;6.60;99.90
18297;DHT22;18066;52.106;5.534;2023-03-04T04:07:17;6.50;99.90
18297;DHT22;18066;52.106;5.534;2023-03-04T04:09:43;6.40;99.90
18297;DHT22;18066;52.106;5.534;2023-03-04T04:12:12;6.50;99.90
18297;DHT22;18066;52.106;5.534;2023-03-04T04:14:40;6.40;99.90
18297;DHT22;18066;52.106;5.534;2023-03-04T04:17:06;6.30;99.90
18297;DHT22;18066;52.106;5.534;2023-03-04T04:19:33;6.40;99.90
18297;DHT22;18066;52.106;5.534;2023-03-04T04:22:00;6.40;99.90
18297;DHT22;18066;52.106;5.534;2023-03-04T04:24:29;6.30;99.90
18297;DHT22;18066;52.106;5.534;2023-03-04T04:26:56;6.40;99.90
18297;DHT22;18066;52.106;5.534;2023-03-04T04:29:23;6.40;99.90
18297;DHT22;18066;52.106;5.534;2023-03-04T04:31:50;6.40;99.90
18297;DHT22;18066;52.106;5.534;2023-03-04T04:34:17;6.40;99.90
18297;DHT22;18066;52.106;5.534;2023-03-04T04:36:43;6.40;99.90
18297;DHT22;18066;52.106;5.534;2023-03-04T04:39:10;6.50;99.90
18297;DHT22;18066;52.106;5.534;2023-03-04T04:41:40;6.50;99.90
18297;DHT22;18066;52.106;5.534;2023-03-04T04:44:08;6.40;99.90
18297;DHT22;18066;52.106;5.534;2023-03-04T04:46:35;6.30;99.90
18297;DHT22;18066;52.106;5.534;2023-03-04T04:49:02;6.30;99.90
18297;DHT22;18066;52.106;5.534;2023-03-04T04:51:30;6.40;99.90
18297;DHT22;18066;52.106;5.534;2023-03-04T04:53:58;6.50;99.90
18297;DHT22;18066;52.106;5.534;2023-03-04T04:56:25;6.50;99.90
18297;DHT22;18066;52.106;5.534;2023-03-04T04:58:56;6.50;99.90
18297;DHT22;18066;52.106;5.534;2023-03-04T05:01:23;6.40;99.90
18297;DHT22;18066;52.106;5.534;2023-03-04T05:03:50;6.40;99.90
18297;DHT22;18066;52.106;5.534;2023-03-04T05:06:18;6.40;99.90
18297;DHT22;18066;52.106;5.534;2023-03-04T05:08:45;6.40;99.90
18297;DHT22;18066;52.106;5.534;2023-03-04T05:11:12;6.40;99.90
18297;DHT22;18066;52.106;5.534;2023-03-04T05:13:39;6.40;99.90
18297;DHT22;18066;52.106;5.534;2023-03-04T05:16:08;6.40;99.90
18297;DHT22;18066;52.106;5.534;2023-03-04T05:18:35;6.40;99.90
18297;DHT22;18066;52.106;5.534;2023-03-04T05:21:03;6.30;99.90
18297;DHT22;18066;52.106;5.534;2023-03-04T05:23:31;6.30;99.90
18297;DHT22;18066;52.106;5.534;2023-03-04T05:25:59;6.40;99.90
18297;DHT22;18066;52.106;5.534;2023-03-04T05:28:26;6.30;99.90
18297;DHT22;18066;52.106;5.534;2023-03-04T05:30:52;6.40;99.90
18297;DHT22;18066;52.106;5.534;2023-03-04T05:33:21;6.30;99.90
18297;DHT22;18066;52.106;5.534;2023-03-04T05:35:48;6.30;99.90
18297;DHT22;18066;52.106;5.534;2023-03-04T05:38:16;6.30;99.90
18297;DHT22;18066;52.106;5.534;2023-03-04T05:40:44;6.30;99.90
18297;DHT22;18066;52.106;5.534;2023-03-04T05:43:11;6.30;99.90
18297;DHT22;18066;52.106;5.534;2023-03-04T05:45:38;6.30;99.90
18297;DHT22;18066;52.106;5.534;2023-03-04T05:48:06;6.20;99.90
18297;DHT22;18066;52.106;5.534;2023-03-04T05:50:34;6.20;99.90
18297;DHT22;18066;52.106;5.534;2023-03-04T05:53:01;6.20;99.90
18297;DHT22;18066;52.106;5.534;2023-03-04T05:55:28;6.20;99.90
18297;DHT22;18066;52.106;5.534;2023-03-04T05:57:55;6.20;99.90
18297;DHT22;18066;52.106;5.534;2023-03-04T06:00:22;6.20;99.90
18297;DHT22;18066;52.106;5.534;2023-03-04T06:02:49;6.20;99.90
18297;DHT22;18066;52.106;5.534;2023-03-04T06:05:16;6.20;99.90
18297;DHT22;18066;52.106;5.534;2023-03-04T06:07:44;6.20;99.90
18297;DHT22;18066;52.106;5.534;2023-03-04T06:10:13;6.20;99.90
18297;DHT22;18066;52.106;5.534;2023-03-04T06:12:40;6.20;99.90
18297;DHT22;18066;52.106;5.534;2023-03-04T06:15:08;6.20;99.90
18297;DHT22;18066;52.106;5.534;2023-03-04T06:17:36;6.30;99.90
18297;DHT22;18066;52.106;5.534;2023-03-04T06:20:03;6.30;99.90
18297;DHT22;18066;52.106;5.534;2023-03-04T06:22:31;6.30;99.90
18297;DHT22;18066;52.106;5.534;2023-03-04T06:25:00;6.20;99.90
18297;DHT22;18066;52.106;5.534;2023-03-04T06:27:27;6.20;99.90
18297;DHT22;18066;52.106;5.534;2023-03-04T06:29:54;6.20;99.90
18297;DHT22;18066;52.106;5.534;2023-03-04T06:32:20;6.10;99.90
18297;DHT22;18066;52.106;5.534;2023-03-04T06:34:47;6.20;99.90
18297;DHT22;18066;52.106;5.534;2023-03-04T06:37:14;6.10;99.90
18297;DHT22;18066;52.106;5.534;2023-03-04T06:39:41;6.10;99.90
18297;DHT22;18066;52.106;5.534;2023-03-04T06:42:09;6.10;99.90
18297;DHT22;18066;52.106;5.534;2023-03-04T06:44:36;6.10;99.90
18297;DHT22;18066;52.106;5.534;2023-03-04T06:47:03;6.00;99.90
18297;DHT22;18066;52.106;5.534;2023-03-04T06:49:29;6.10;99.90
18297;DHT22;18066;52.106;5.534;2023-03-04T06:51:56;6.20;99.90
18297;DHT22;18066;52.106;5.534;2023-03-04T06:54:23;6.20;99.90
18297;DHT22;18066;52.106;5.534;2023-03-04T06:56:50;6.20;99.90
18297;DHT22;18066;52.106;5.534;2023-03-04T06:59:18;6.10;99.90
18297;DHT22;18066;52.106;5.534;2023-03-04T07:01:45;6.10;99.90
18297;DHT22;18066;52.106;5.534;2023-03-04T07:04:12;6.20;99.90
18297;DHT22;18066;52.106;5.534;2023-03-04T07:06:39;6.10;99.90
18297;DHT22;18066;52.106;5.534;2023-03-04T07:09:06;6.20;99.90
18297;DHT22;18066;52.106;5.534;2023-03-04T07:11:32;6.40;99.90
18297;DHT22;18066;52.106;5.534;2023-03-04T07:13:59;6.50;99.90
18297;DHT22;18066;52.106;5.534;2023-03-04T07:16:27;6.60;99.90
18297;DHT22;18066;52.106;5.534;2023-03-04T07:18:54;6.80;99.90
18297;DHT22;18066;52.106;5.534;2023-03-04T07:21:21;7.00;99.90
18297;DHT22;18066;52.106;5.534;2023-03-04T07:23:48;6.90;99.90
18297;DHT22;18066;52.106;5.534;2023-03-04T07:26:15;6.90;99.90
18297;DHT22;18066;52.106;5.534;2023-03-04T07:28:42;6.80;99.90
18297;DHT22;18066;52.106;5.534;2023-03-04T07:31:11;6.70;99.90
18297;DHT22;18066;52.106;5.534;2023-03-04T07:33:40;6.70;99.90
18297;DHT22;18066;52.106;5.534;2023-03-04T07:36:07;6.60;99.90
18297;DHT22;18066;52.106;5.534;2023-03-04T07:38:33;6.60;99.90
18297;DHT22;18066;52.106;5.534;2023-03-04T07:41:01;6.70;99.90
18297;DHT22;18066;52.106;5.534;2023-03-04T07:43:28;6.70;99.90
18297;DHT22;18066;52.106;5.534;2023-03-04T07:45:58;6.70;99.90
18297;DHT22;18066;52.106;5.534;2023-03-04T07:48:25;6.70;99.90
18297;DHT22;18066;52.106;5.534;2023-03-04T07:51:04;6.60;99.90
18297;DHT22;18066;52.106;5.534;2023-03-04T07:53:31;6.80;99.90
18297;DHT22;18066;52.106;5.534;2023-03-04T07:55:58;6.70;99.90
18297;DHT22;18066;52.106;5.534;2023-03-04T07:58:25;6.80;99.90
18297;DHT22;18066;52.106;5.534;2023-03-04T08:00:52;6.60;99.90
18297;DHT22;18066;52.106;5.534;2023-03-04T08:03:19;6.60;99.90
18297;DHT22;18066;52.106;5.534;2023-03-04T08:05:45;6.70;99.90
18297;DHT22;18066;52.106;5.534;2023-03-04T08:08:14;6.70;99.90
18297;DHT22;18066;52.106;5.534;2023-03-04T08:10:40;6.80;99.90
18297;DHT22;18066;52.106;5.534;2023-03-04T08:13:08;6.80;99.90
18297;DHT22;18066;52.106;5.534;2023-03-04T08:15:39;6.90;99.90
18297;DHT22;18066;52.106;5.534;2023-03-04T08:18:05;6.90;99.90
18297;DHT22;18066;52.106;5.534;2023-03-04T08:20:32;6.90;99.90
18297;DHT22;18066;52.106;5.534;2023-03-04T08:22:59;7.00;99.90
18297;DHT22;18066;52.106;5.534;2023-03-04T08:25:27;7.10;99.90
18297;DHT22;18066;52.106;5.534;2023-03-04T08:27:54;7.20;99.90
18297;DHT22;18066;52.106;5.534;2023-03-04T08:30:21;7.20;99.90
18297;DHT22;18066;52.106;5.534;2023-03-04T08:32:48;7.20;99.90
18297;DHT22;18066;52.106;5.534;2023-03-04T08:35:15;7.20;99.90
18297;DHT22;18066;52.106;5.534;2023-03-04T08:37:42;7.20;99.90
18297;DHT22;18066;52.106;5.534;2023-03-04T08:40:11;7.10;99.90
18297;DHT22;18066;52.106;5.534;2023-03-04T08:42:40;7.10;99.90
18297;DHT22;18066;52.106;5.534;2023-03-04T08:45:08;7.00;99.90
18297;DHT22;18066;52.106;5.534;2023-03-04T08:47:35;7.10;99.90
18297;DHT22;18066;52.106;5.534;2023-03-04T08:50:02;7.30;99.90
18297;DHT22;18066;52.106;5.534;2023-03-04T08:52:29;7.20;99.90
18297;DHT22;18066;52.106;5.534;2023-03-04T08:54:56;7.10;99.90
18297;DHT22;18066;52.106;5.534;2023-03-04T08:57:23;7.00;99.90
18297;DHT22;18066;52.106;5.534;2023-03-04T08:59:51;7.10;99.90
18297;DHT22;18066;52.106;5.534;2023-03-04T09:02:18;7.10;99.90
18297;DHT22;18066;52.106;5.534;2023-03-04T09:04:45;7.20;99.90
18297;DHT22;18066;52.106;5.534;2023-03-04T09:07:12;7.30;99.90
18297;DHT22;18066;52.106;5.534;2023-03-04T09:09:39;7.10;99.90
18297;DHT22;18066;52.106;5.534;2023-03-04T09:12:06;7.10;99.90
18297;DHT22;18066;52.106;5.534;2023-03-04T09:14:33;7.00;99.90
18297;DHT22;18066;52.106;5.534;2023-03-04T09:17:02;7.10;99.90
18297;DHT22;18066;52.106;5.534;2023-03-04T09:19:29;7.20;99.90
18297;DHT22;18066;52.106;5.534;2023-03-04T09:21:56;7.30;99.90
18297;DHT22;18066;52.106;5.534;2023-03-04T09:24:24;7.30;99.90
18297;DHT22;18066;52.106;5.534;2023-03-04T09:26:51;7.40;99.90
18297;DHT22;18066;52.106;5.534;2023-03-04T09:29:20;7.40;99.90
18297;DHT22;18066;52.106;5.534;2023-03-04T09:31:47;7.40;99.90
18297;DHT22;18066;52.106;5.534;2023-03-04T09:34:15;7.60;99.90
18297;DHT22;18066;52.106;5.534;2023-03-04T09:36:42;7.70;99.90
18297;DHT22;18066;52.106;5.534;2023-03-04T09:39:08;7.70;99.90
18297;DHT22;18066;52.106;5.534;2023-03-04T09:41:39;7.90;99.90
18297;DHT22;18066;52.106;5.534;2023-03-04T09:44:14;7.90;99.90
18297;DHT22;18066;52.106;5.534;2023-03-04T09:46:44;7.80;99.90
18297;DHT22;18066;52.106;5.534;2023-03-04T09:49:12;7.90;99.90
18297;DHT22;18066;52.106;5.534;2023-03-04T09:51:50;8.10;99.90
18297;DHT22;18066;52.106;5.534;2023-03-04T09:54:31;8.30;99.90
18297;DHT22;18066;52.106;5.534;2023-03-04T09:57:03;8.20;99.90
18297;DHT22;18066;52.106;5.534;2023-03-04T09:59:40;8.30;99.90
18297;DHT22;18066;52.106;5.534;2023-03-04T10:02:17;8.40;99.90
18297;DHT22;18066;52.106;5.534;2023-03-04T10:04:48;8.00;99.90
18297;DHT22;18066;52.106;5.534;2023-03-04T10:07:21;7.80;99.90
18297;DHT22;18066;52.106;5.534;2023-03-04T10:09:54;8.00;99.90
18297;DHT22;18066;52.106;5.534;2023-03-04T10:12:23;8.00;99.90
18297;DHT22;18066;52.106;5.534;2023-03-04T10:14:58;8.30;99.90
18297;DHT22;18066;52.106;5.534;2023-03-04T10:17:32;8.50;99.90
18297;DHT22;18066;52.106;5.534;2023-03-04T10:20:04;8.50;99.90
18297;DHT22;18066;52.106;5.534;2023-03-04T10:22:35;8.50;99.90
18297;DHT22;18066;52.106;5.534;2023-03-04T10:25:15;8.60;99.90
18297;DHT22;18066;52.106;5.534;2023-03-04T10:27:43;8.60;99.90
18297;DHT22;18066;52.106;5.534;2023-03-04T10:30:21;8.60;99.90
18297;DHT22;18066;52.106;5.534;2023-03-04T10:32:49;8.50;99.90
18297;DHT22;18066;52.106;5.534;2023-03-04T10:35:17;8.50;99.90
18297;DHT22;18066;52.106;5.534;2023-03-04T10:37:49;8.40;99.90
18297;DHT22;18066;52.106;5.534;2023-03-04T10:40:20;8.40;99.90
18297;DHT22;18066;52.106;5.534;2023-03-04T10:42:48;8.40;99.90
18297;DHT22;18066;52.106;5.534;2023-03-04T10:45:20;8.70;99.90
18297;DHT22;18066;52.106;5.534;2023-03-04T10:47:51;8.60;99.90
18297;DHT22;18066;52.106;5.534;2023-03-04T10:50:22;8.70;99.90
18297;DHT22;18066;52.106;5.534;2023-03-04T10:52:50;8.90;99.90
18297;DHT22;18066;52.106;5.534;2023-03-04T10:55:23;8.90;99.90
18297;DHT22;18066;52.106;5.534;2023-03-04T10:57:51;8.80;99.90
18297;DHT22;18066;52.106;5.534;2023-03-04T11:00:25;8.80;99.90
18297;DHT22;18066;52.106;5.534;2023-03-04T11:02:52;8.80;99.90
18297;DHT22;18066;52.106;5.534;2023-03-04T11:05:39;8.80;99.90
18297;DHT22;18066;52.106;5.534;2023-03-04T11:08:16;9.20;99.90
18297;DHT22;18066;52.106;5.534;2023-03-04T11:10:44;9.50;99.90
18297;DHT22;18066;52.106;5.534;2023-03-04T11:13:15;9.50;99.90
18297;DHT22;18066;52.106;5.534;2023-03-04T11:15:50;9.60;99.90
18297;DHT22;18066;52.106;5.534;2023-03-04T11:18:19;9.30;99.90
18297;DHT22;18066;52.106;5.534;2023-03-04T11:20:49;9.10;99.90
18297;DHT22;18066;52.106;5.534;2023-03-04T11:23:21;9.20;99.90
18297;DHT22;18066;52.106;5.534;2023-03-04T11:25:56;9.20;99.90
18297;DHT22;18066;52.106;5.534;2023-03-04T11:28:28;8.90;99.90
18297;DHT22;18066;52.106;5.534;2023-03-04T11:31:00;8.80;99.90
18297;DHT22;18066;52.106;5.534;2023-03-04T11:33:35;8.80;99.90
18297;DHT22;18066;52.106;5.534;2023-03-04T11:36:20;8.70;99.90
18297;DHT22;18066;52.106;5.534;2023-03-04T11:38:50;8.50;99.90
18297;DHT22;18066;52.106;5.534;2023-03-04T11:41:20;8.30;99.90
18297;DHT22;18066;52.106;5.534;2023-03-04T11:43:49;8.50;99.90
18297;DHT22;18066;52.106;5.534;2023-03-04T11:46:43;8.50;99.90
18297;DHT22;18066;52.106;5.534;2023-03-04T11:49:32;8.70;99.90
18297;DHT22;18066;52.106;5.534;2023-03-04T11:52:11;8.90;99.90
18297;DHT22;18066;52.106;5.534;2023-03-04T11:54:52;8.90;99.90
18297;DHT22;18066;52.106;5.534;2023-03-04T11:57:30;9.00;99.90
18297;DHT22;18066;52.106;5.534;2023-03-04T12:00:12;9.00;99.90
18297;DHT22;18066;52.106;5.534;2023-03-04T12:02:47;9.10;99.90
18297;DHT22;18066;52.106;5.534;2023-03-04T12:05:23;9.40;99.90
18297;DHT22;18066;52.106;5.534;2023-03-04T12:08:32;9.70;99.90
18297;DHT22;18066;52.106;5.534;2023-03-04T12:11:09;9.90;99.90
18297;DHT22;18066;52.106;5.534;2023-03-04T12:13:55;10.00;99.90
18297;DHT22;18066;52.106;5.534;2023-03-04T12:16:37;9.80;99.90
18297;DHT22;18066;52.106;5.534;2023-03-04T12:19:19;9.70;99.90
18297;DHT22;18066;52.106;5.534;2023-03-04T12:21:59;9.60;99.90
18297;DHT22;18066;52.106;5.534;2023-03-04T12:27:39;9.60;99.90
18297;DHT22;18066;52.106;5.534;2023-03-04T12:30:21;9.60;99.90
18297;DHT22;18066;52.106;5.534;2023-03-04T12:32:56;9.30;99.90
18297;DHT22;18066;52.106;5.534;2023-03-04T12:35:36;9.10;99.90
18297;DHT22;18066;52.106;5.534;2023-03-04T12:38:30;9.10;99.90
18297;DHT22;18066;52.106;5.534;2023-03-04T12:41:10;9.10;99.90
18297;DHT22;18066;52.106;5.534;2023-03-04T12:43:49;9.40;99.90
18297;DHT22;18066;52.106;5.534;2023-03-04T12:46:41;9.50;99.90
18297;DHT22;18066;52.106;5.534;2023-03-04T12:49:37;9.50;99.90
18297;DHT22;18066;52.106;5.534;2023-03-04T12:52:13;9.40;99.90
18297;DHT22;18066;52.106;5.534;2023-03-04T12:54:44;9.60;99.90
18297;DHT22;18066;52.106;5.534;2023-03-04T12:57:15;9.80;99.90
18297;DHT22;18066;52.106;5.534;2023-03-04T12:59:49;9.90;99.90
18297;DHT22;18066;52.106;5.534;2023-03-04T13:02:29;10.00;99.90
18297;DHT22;18066;52.106;5.534;2023-03-04T13:05:06;10.00;99.90
18297;DHT22;18066;52.106;5.534;2023-03-04T13:07:46;10.10;99.90
18297;DHT22;18066;52.106;5.534;2023-03-04T13:10:17;10.20;99.90
18297;DHT22;18066;52.106;5.534;2023-03-04T13:12:46;10.20;99.90
18297;DHT22;18066;52.106;5.534;2023-03-04T13:15:28;9.70;99.90
18297;DHT22;18066;52.106;5.534;2023-03-04T13:17:56;9.50;99.90
18297;DHT22;18066;52.106;5.534;2023-03-04T13:20:31;9.30;99.90
18297;DHT22;18066;52.106;5.534;2023-03-04T13:22:59;9.40;99.90
18297;DHT22;18066;52.106;5.534;2023-03-04T13:25:44;9.40;99.90
18297;DHT22;18066;52.106;5.534;2023-03-04T13:28:23;9.30;99.90
18297;DHT22;18066;52.106;5.534;2023-03-04T13:31:16;9.20;99.90
18297;DHT22;18066;52.106;5.534;2023-03-04T13:33:57;9.20;99.90
18297;DHT22;18066;52.106;5.534;2023-03-04T13:39:26;9.00;99.90
18297;DHT22;18066;52.106;5.534;2023-03-04T13:41:54;8.80;99.90
18297;DHT22;18066;52.106;5.534;2023-03-04T13:47:19;8.60;99.90
18297;DHT22;18066;52.106;5.534;2023-03-04T13:49:46;8.60;99.90
18297;DHT22;18066;52.106;5.534;2023-03-04T13:52:34;8.60;99.90
18297;DHT22;18066;52.106;5.534;2023-03-04T13:55:32;8.80;99.90
18297;DHT22;18066;52.106;5.534;2023-03-04T13:58:00;8.90;99.90
18297;DHT22;18066;52.106;5.534;2023-03-04T14:00:28;9.00;99.90
18297;DHT22;18066;52.106;5.534;2023-03-04T14:03:11;9.10;99.90
18297;DHT22;18066;52.106;5.534;2023-03-04T14:05:39;9.00;99.90
18297;DHT22;18066;52.106;5.534;2023-03-04T14:08:17;8.90;99.90
18297;DHT22;18066;52.106;5.534;2023-03-04T14:10:44;8.90;99.90
18297;DHT22;18066;52.106;5.534;2023-03-04T14:13:19;8.80;99.90
18297;DHT22;18066;52.106;5.534;2023-03-04T14:15:53;8.70;99.90
18297;DHT22;18066;52.106;5.534;2023-03-04T14:18:22;8.60;99.90
18297;DHT22;18066;52.106;5.534;2023-03-04T14:20:50;8.50;99.90
18297;DHT22;18066;52.106;5.534;2023-03-04T14:23:25;8.60;99.90
18297;DHT22;18066;52.106;5.534;2023-03-04T14:26:03;8.50;99.90
18297;DHT22;18066;52.106;5.534;2023-03-04T14:28:29;8.60;99.90
18297;DHT22;18066;52.106;5.534;2023-03-04T14:30:57;8.60;99.90
18297;DHT22;18066;52.106;5.534;2023-03-04T14:33:27;8.70;99.90
18297;DHT22;18066;52.106;5.534;2023-03-04T14:35:55;8.60;99.90
18297;DHT22;18066;52.106;5.534;2023-03-04T14:38:24;8.50;99.90
18297;DHT22;18066;52.106;5.534;2023-03-04T14:40:55;8.30;99.90
18297;DHT22;18066;52.106;5.534;2023-03-04T14:43:23;8.30;99.90
18297;DHT22;18066;52.106;5.534;2023-03-04T14:45:53;8.60;99.90
18297;DHT22;18066;52.106;5.534;2023-03-04T14:48:23;8.90;99.90
18297;DHT22;18066;52.106;5.534;2023-03-04T14:50:55;8.60;99.90
18297;DHT22;18066;52.106;5.534;2023-03-04T14:53:24;8.70;99.90
18297;DHT22;18066;52.106;5.534;2023-03-04T14:55:56;8.90;99.90
18297;DHT22;18066;52.106;5.534;2023-03-04T14:58:25;9.10;99.90
18297;DHT22;18066;52.106;5.534;2023-03-04T15:01:04;9.20;99.90
18297;DHT22;18066;52.106;5.534;2023-03-04T15:03:32;9.00;99.90
18297;DHT22;18066;52.106;5.534;2023-03-04T15:06:14;9.00;99.90
18297;DHT22;18066;52.106;5.534;2023-03-04T15:08:41;9.00;99.90
18297;DHT22;18066;52.106;5.534;2023-03-04T15:11:19;9.10;99.90
18297;DHT22;18066;52.106;5.534;2023-03-04T15:13:48;8.80;99.90
18297;DHT22;18066;52.106;5.534;2023-03-04T15:16:17;8.70;99.90
18297;DHT22;18066;52.106;5.534;2023-03-04T15:18:58;8.70;99.90
18297;DHT22;18066;52.106;5.534;2023-03-04T15:21:36;8.70;99.90
18297;DHT22;18066;52.106;5.534;2023-03-04T15:24:05;8.60;99.90
18297;DHT22;18066;52.106;5.534;2023-03-04T15:26:42;8.50;99.90
18297;DHT22;18066;52.106;5.534;2023-03-04T15:29:13;8.60;99.90
18297;DHT22;18066;52.106;5.534;2023-03-04T15:31:41;8.70;99.90
18297;DHT22;18066;52.106;5.534;2023-03-04T15:34:11;8.80;99.90
18297;DHT22;18066;52.106;5.534;2023-03-04T15:36:39;8.90;99.90
18297;DHT22;18066;52.106;5.534;2023-03-04T15:39:10;9.00;99.90
18297;DHT22;18066;52.106;5.534;2023-03-04T15:41:38;9.20;99.90
18297;DHT22;18066;52.106;5.534;2023-03-04T15:44:05;9.20;99.90
18297;DHT22;18066;52.106;5.534;2023-03-04T15:46:32;9.10;99.90
18297;DHT22;18066;52.106;5.534;2023-03-04T15:48:58;8.90;99.90
18297;DHT22;18066;52.106;5.534;2023-03-04T15:51:25;8.70;99.90
18297;DHT22;18066;52.106;5.534;2023-03-04T15:53:55;8.30;99.90
18297;DHT22;18066;52.106;5.534;2023-03-04T15:56:24;8.20;99.90
18297;DHT22;18066;52.106;5.534;2023-03-04T15:58:53;8.20;99.90
18297;DHT22;18066;52.106;5.534;2023-03-04T16:01:21;8.20;99.90
18297;DHT22;18066;52.106;5.534;2023-03-04T16:03:48;8.20;99.90
18297;DHT22;18066;52.106;5.534;2023-03-04T16:06:16;8.20;99.90
18297;DHT22;18066;52.106;5.534;2023-03-04T16:08:45;8.10;99.90
18297;DHT22;18066;52.106;5.534;2023-03-04T16:11:16;8.10;99.90